sensor_id;sensor_type;location;lat;lon;timestamp;P1;durP1;ratioP1;P2;durP2;ratioP2
2858;SDS011;1437;53.250;10.406;2022-08-03T00:00:53;6.00;;;3.50;;
2858;SDS011;1437;53.250;10.406;2022-08-03T00:03:20;5.03;;;4.53;;
2858;SDS011;1437;53.250;10.406;2022-08-03T00:05:48;4.70;;;3.90;;
2858;SDS011;1437;53.250;10.406;2022-08-03T00:08:15;3.60;;;3.30;;
2858;SDS011;1437;53.250;10.406;2022-08-03T00:10:42;4.13;;;3.57;;
2858;SDS011;1437;53.250;10.406;2022-08-03T00:13:16;4.20;;;3.80;;
2858;SDS011;1437;53.250;10.406;2022-08-03T00:15:44;7.30;;;3.70;;
2858;SDS011;1437;53.250;10.406;2022-08-03T00:18:11;4.03;;;3.40;;
2858;SDS011;1437;53.250;10.406;2022-08-03T00:20:38;6.60;;;3.83;;
2858;SDS011;1437;53.250;10.406;2022-08-03T00:23:06;5.17;;;3.50;;
2858;SDS011;1437;53.250;10.406;2022-08-03T00:25:35;3.43;;;3.13;;
2858;SDS011;1437;53.250;10.406;2022-08-03T00:28:03;4.90;;;3.40;;
2858;SDS011;1437;53.250;10.406;2022-08-03T00:30:30;5.80;;;4.27;;
2858;SDS011;1437;53.250;10.406;2022-08-03T00:32:57;5.33;;;3.63;;
2858;SDS011;1437;53.250;10.406;2022-08-03T00:35:24;7.70;;;3.40;;
2858;SDS011;1437;53.250;10.406;2022-08-03T00:37:51;7.13;;;3.53;;
2858;SDS011;1437;53.250;10.406;2022-08-03T00:40:19;4.67;;;4.00;;
2858;SDS011;1437;53.250;10.406;2022-08-03T00:42:47;4.13;;;3.33;;
2858;SDS011;1437;53.250;10.406;2022-08-03T00:45:15;4.30;;;3.90;;
2858;SDS011;1437;53.250;10.406;2022-08-03T00:47:43;5.20;;;4.10;;
2858;SDS011;1437;53.250;10.406;2022-08-03T00:50:14;5.27;;;3.57;;
2858;SDS011;1437;53.250;10.406;2022-08-03T00:52:41;4.67;;;3.80;;
2858;SDS011;1437;53.250;10.406;2022-08-03T00:55:21;4.27;;;3.87;;
2858;SDS011;1437;53.250;10.406;2022-08-03T00:57:48;4.73;;;3.97;;
2858;SDS011;1437;53.250;10.406;2022-08-03T01:00:16;4.03;;;3.37;;
2858;SDS011;1437;53.250;10.406;2022-08-03T01:02:43;4.13;;;3.73;;
2858;SDS011;1437;53.250;10.406;2022-08-03T01:05:10;4.13;;;3.60;;
2858;SDS011;1437;53.250;10.406;2022-08-03T01:07:41;4.57;;;3.70;;
2858;SDS011;1437;53.250;10.406;2022-08-03T01:10:12;4.83;;;3.20;;
2858;SDS011;1437;53.250;10.406;2022-08-03T01:12:46;7.23;;;4.17;;
2858;SDS011;1437;53.250;10.406;2022-08-03T01:15:16;6.10;;;4.37;;
2858;SDS011;1437;53.250;10.406;2022-08-03T01:17:47;5.63;;;3.80;;
2858;SDS011;1437;53.250;10.406;2022-08-03T01:20:15;6.33;;;4.20;;
2858;SDS011;1437;53.250;10.406;2022-08-03T01:23:00;5.50;;;3.93;;
2858;SDS011;1437;53.250;10.406;2022-08-03T01:25:32;5.60;;;4.17;;
2858;SDS011;1437;53.250;10.406;2022-08-03T01:28:05;6.53;;;4.00;;
2858;SDS011;1437;53.250;10.406;2022-08-03T01:30:37;5.17;;;4.20;;
2858;SDS011;1437;53.250;10.406;2022-08-03T01:33:08;5.40;;;3.90;;
2858;SDS011;1437;53.250;10.406;2022-08-03T01:35:38;5.13;;;3.77;;
2858;SDS011;1437;53.250;10.406;2022-08-03T01:38:08;4.20;;;3.80;;
2858;SDS011;1437;53.250;10.406;2022-08-03T01:40:36;5.00;;;4.50;;
2858;SDS011;1437;53.250;10.406;2022-08-03T01:43:05;5.37;;;4.00;;
2858;SDS011;1437;53.250;10.406;2022-08-03T01:45:33;5.77;;;4.80;;
2858;SDS011;1437;53.250;10.406;2022-08-03T01:48:02;4.73;;;3.50;;
2858;SDS011;1437;53.250;10.406;2022-08-03T01:50:30;5.00;;;3.80;;
2858;SDS011;1437;53.250;10.406;2022-08-03T01:52:58;5.20;;;3.73;;
2858;SDS011;1437;53.250;10.406;2022-08-03T01:55:25;6.30;;;4.10;;
2858;SDS011;1437;53.250;10.406;2022-08-03T01:57:53;5.90;;;4.13;;
2858;SDS011;1437;53.250;10.406;2022-08-03T02:00:22;5.40;;;4.20;;
2858;SDS011;1437;53.250;10.406;2022-08-03T02:02:50;5.30;;;3.90;;
2858;SDS011;1437;53.250;10.406;2022-08-03T02:05:18;4.97;;;3.73;;
2858;SDS011;1437;53.250;10.406;2022-08-03T02:07:45;7.87;;;4.10;;
2858;SDS011;1437;53.250;10.406;2022-08-03T02:10:14;4.90;;;4.27;;
2858;SDS011;1437;53.250;10.406;2022-08-03T02:12:42;6.20;;;4.07;;
2858;SDS011;1437;53.250;10.406;2022-08-03T02:15:10;5.77;;;4.33;;
2858;SDS011;1437;53.250;10.406;2022-08-03T02:17:37;4.47;;;3.77;;
2858;SDS011;1437;53.250;10.406;2022-08-03T02:20:05;4.60;;;4.07;;
2858;SDS011;1437;53.250;10.406;2022-08-03T02:22:33;6.10;;;4.43;;
2858;SDS011;1437;53.250;10.406;2022-08-03T02:25:01;6.77;;;4.30;;
2858;SDS011;1437;53.250;10.406;2022-08-03T02:27:28;5.80;;;4.43;;
2858;SDS011;1437;53.250;10.406;2022-08-03T02:30:02;9.07;;;4.60;;
2858;SDS011;1437;53.250;10.406;2022-08-03T02:32:39;5.37;;;4.47;;
2858;SDS011;1437;53.250;10.406;2022-08-03T02:35:08;5.20;;;4.70;;
2858;SDS011;1437;53.250;10.406;2022-08-03T02:37:39;8.63;;;3.83;;
2858;SDS011;1437;53.250;10.406;2022-08-03T02:40:07;4.73;;;3.70;;
2858;SDS011;1437;53.250;10.406;2022-08-03T02:42:35;11.43;;;4.80;;
2858;SDS011;1437;53.250;10.406;2022-08-03T02:45:04;5.13;;;4.10;;
2858;SDS011;1437;53.250;10.406;2022-08-03T02:47:32;5.97;;;3.77;;
2858;SDS011;1437;53.250;10.406;2022-08-03T02:50:00;5.93;;;4.37;;
2858;SDS011;1437;53.250;10.406;2022-08-03T02:52:31;4.27;;;3.87;;
2858;SDS011;1437;53.250;10.406;2022-08-03T02:55:01;4.93;;;3.90;;
2858;SDS011;1437;53.250;10.406;2022-08-03T02:57:29;7.70;;;3.83;;
2858;SDS011;1437;53.250;10.406;2022-08-03T02:59:57;5.07;;;4.10;;
2858;SDS011;1437;53.250;10.406;2022-08-03T03:02:25;5.20;;;4.70;;
2858;SDS011;1437;53.250;10.406;2022-08-03T03:04:56;5.07;;;4.43;;
2858;SDS011;1437;53.250;10.406;2022-08-03T03:07:23;8.03;;;4.50;;
2858;SDS011;1437;53.250;10.406;2022-08-03T03:09:51;4.93;;;4.17;;
2858;SDS011;1437;53.250;10.406;2022-08-03T03:12:19;4.73;;;3.83;;
2858;SDS011;1437;53.250;10.406;2022-08-03T03:14:47;5.10;;;3.97;;
2858;SDS011;1437;53.250;10.406;2022-08-03T03:17:14;4.83;;;4.33;;
2858;SDS011;1437;53.250;10.406;2022-08-03T03:19:42;5.87;;;4.47;;
2858;SDS011;1437;53.250;10.406;2022-08-03T03:22:10;4.90;;;4.40;;
2858;SDS011;1437;53.250;10.406;2022-08-03T03:24:39;5.77;;;4.60;;
2858;SDS011;1437;53.250;10.406;2022-08-03T03:27:07;6.03;;;4.20;;
2858;SDS011;1437;53.250;10.406;2022-08-03T03:29:35;5.83;;;4.77;;
2858;SDS011;1437;53.250;10.406;2022-08-03T03:32:02;5.40;;;4.60;;
2858;SDS011;1437;53.250;10.406;2022-08-03T03:34:29;5.10;;;4.60;;
2858;SDS011;1437;53.250;10.406;2022-08-03T03:36:56;6.60;;;5.17;;
2858;SDS011;1437;53.250;10.406;2022-08-03T03:39:23;5.43;;;4.40;;
2858;SDS011;1437;53.250;10.406;2022-08-03T03:41:50;5.17;;;4.67;;
2858;SDS011;1437;53.250;10.406;2022-08-03T03:44:17;5.10;;;4.20;;
2858;SDS011;1437;53.250;10.406;2022-08-03T03:46:45;5.10;;;4.57;;
2858;SDS011;1437;53.250;10.406;2022-08-03T03:49:15;5.10;;;4.60;;
2858;SDS011;1437;53.250;10.406;2022-08-03T03:51:42;5.60;;;5.10;;
2858;SDS011;1437;53.250;10.406;2022-08-03T03:54:09;6.97;;;4.30;;
2858;SDS011;1437;53.250;10.406;2022-08-03T03:56:36;4.53;;;4.13;;
2858;SDS011;1437;53.250;10.406;2022-08-03T03:59:03;6.87;;;4.67;;
2858;SDS011;1437;53.250;10.406;2022-08-03T04:01:30;4.23;;;3.80;;
2858;SDS011;1437;53.250;10.406;2022-08-03T04:03:58;6.00;;;5.03;;
2858;SDS011;1437;53.250;10.406;2022-08-03T04:06:45;5.10;;;4.40;;
2858;SDS011;1437;53.250;10.406;2022-08-03T04:09:30;5.23;;;4.73;;
2858;SDS011;1437;53.250;10.406;2022-08-03T04:12:16;7.10;;;4.17;;
2858;SDS011;1437;53.250;10.406;2022-08-03T04:14:43;6.30;;;4.33;;
2858;SDS011;1437;53.250;10.406;2022-08-03T04:17:11;6.13;;;4.90;;
2858;SDS011;1437;53.250;10.406;2022-08-03T04:19:41;7.47;;;4.67;;
2858;SDS011;1437;53.250;10.406;2022-08-03T04:22:09;6.53;;;4.63;;
2858;SDS011;1437;53.250;10.406;2022-08-03T04:24:37;9.17;;;5.83;;
2858;SDS011;1437;53.250;10.406;2022-08-03T04:27:06;5.10;;;4.60;;
2858;SDS011;1437;53.250;10.406;2022-08-03T04:29:34;9.30;;;4.30;;
2858;SDS011;1437;53.250;10.406;2022-08-03T04:32:01;5.23;;;4.53;;
2858;SDS011;1437;53.250;10.406;2022-08-03T04:34:29;6.60;;;4.47;;
2858;SDS011;1437;53.250;10.406;2022-08-03T04:36:58;9.10;;;5.70;;
2858;SDS011;1437;53.250;10.406;2022-08-03T04:39:26;6.60;;;5.33;;
2858;SDS011;1437;53.250;10.406;2022-08-03T04:41:53;5.40;;;4.70;;
2858;SDS011;1437;53.250;10.406;2022-08-03T04:44:22;5.10;;;3.83;;
2858;SDS011;1437;53.250;10.406;2022-08-03T04:46:49;5.10;;;4.27;;
2858;SDS011;1437;53.250;10.406;2022-08-03T04:49:17;5.03;;;4.53;;
2858;SDS011;1437;53.250;10.406;2022-08-03T04:51:45;8.20;;;4.97;;
2858;SDS011;1437;53.250;10.406;2022-08-03T04:54:14;29.80;;;19.40;;
2858;SDS011;1437;53.250;10.406;2022-08-03T04:56:41;8.07;;;4.40;;
2858;SDS011;1437;53.250;10.406;2022-08-03T04:59:08;6.67;;;5.10;;
2858;SDS011;1437;53.250;10.406;2022-08-03T05:04:28;7.83;;;4.60;;
2858;SDS011;1437;53.250;10.406;2022-08-03T05:06:55;4.67;;;4.17;;
2858;SDS011;1437;53.250;10.406;2022-08-03T05:09:22;4.80;;;3.83;;
2858;SDS011;1437;53.250;10.406;2022-08-03T05:11:49;4.20;;;3.60;;
2858;SDS011;1437;53.250;10.406;2022-08-03T05:14:16;6.97;;;4.33;;
2858;SDS011;1437;53.250;10.406;2022-08-03T05:16:43;5.10;;;4.60;;
2858;SDS011;1437;53.250;10.406;2022-08-03T05:19:10;20.27;;;5.93;;
2858;SDS011;1437;53.250;10.406;2022-08-03T05:21:37;4.97;;;4.47;;
2858;SDS011;1437;53.250;10.406;2022-08-03T05:24:04;6.60;;;4.10;;
2858;SDS011;1437;53.250;10.406;2022-08-03T05:26:32;5.50;;;4.03;;
2858;SDS011;1437;53.250;10.406;2022-08-03T05:28:59;4.03;;;3.50;;
2858;SDS011;1437;53.250;10.406;2022-08-03T05:31:26;3.80;;;3.40;;
2858;SDS011;1437;53.250;10.406;2022-08-03T05:33:53;9.93;;;4.43;;
2858;SDS011;1437;53.250;10.406;2022-08-03T05:36:21;5.60;;;3.57;;
2858;SDS011;1437;53.250;10.406;2022-08-03T05:38:48;39.33;;;6.40;;
2858;SDS011;1437;53.250;10.406;2022-08-03T05:41:15;4.10;;;3.70;;
2858;SDS011;1437;53.250;10.406;2022-08-03T05:43:43;4.53;;;3.80;;
2858;SDS011;1437;53.250;10.406;2022-08-03T05:46:10;5.07;;;4.00;;
2858;SDS011;1437;53.250;10.406;2022-08-03T05:48:37;4.50;;;3.70;;
2858;SDS011;1437;53.250;10.406;2022-08-03T05:51:10;6.07;;;3.50;;
2858;SDS011;1437;53.250;10.406;2022-08-03T05:53:37;4.30;;;3.60;;
2858;SDS011;1437;53.250;10.406;2022-08-03T05:56:04;4.83;;;3.43;;
2858;SDS011;1437;53.250;10.406;2022-08-03T05:58:31;4.93;;;3.43;;
2858;SDS011;1437;53.250;10.406;2022-08-03T06:00:59;4.90;;;4.00;;
2858;SDS011;1437;53.250;10.406;2022-08-03T06:03:26;5.40;;;3.23;;
2858;SDS011;1437;53.250;10.406;2022-08-03T06:05:53;6.40;;;3.73;;
2858;SDS011;1437;53.250;10.406;2022-08-03T06:08:20;4.00;;;3.13;;
2858;SDS011;1437;53.250;10.406;2022-08-03T06:10:47;6.43;;;3.83;;
2858;SDS011;1437;53.250;10.406;2022-08-03T06:13:14;3.97;;;3.57;;
2858;SDS011;1437;53.250;10.406;2022-08-03T06:15:41;5.70;;;3.60;;
2858;SDS011;1437;53.250;10.406;2022-08-03T06:18:09;5.83;;;3.60;;
2858;SDS011;1437;53.250;10.406;2022-08-03T06:20:36;6.37;;;4.30;;
2858;SDS011;1437;53.250;10.406;2022-08-03T06:23:02;4.40;;;3.73;;
2858;SDS011;1437;53.250;10.406;2022-08-03T06:25:29;4.00;;;3.17;;
2858;SDS011;1437;53.250;10.406;2022-08-03T06:27:56;5.47;;;3.00;;
2858;SDS011;1437;53.250;10.406;2022-08-03T06:30:24;5.17;;;3.17;;
2858;SDS011;1437;53.250;10.406;2022-08-03T06:32:50;7.37;;;3.70;;
2858;SDS011;1437;53.250;10.406;2022-08-03T06:35:18;6.83;;;4.00;;
2858;SDS011;1437;53.250;10.406;2022-08-03T06:37:45;4.27;;;3.30;;
2858;SDS011;1437;53.250;10.406;2022-08-03T06:40:13;6.13;;;4.00;;
2858;SDS011;1437;53.250;10.406;2022-08-03T06:42:40;11.13;;;3.97;;
2858;SDS011;1437;53.250;10.406;2022-08-03T06:45:08;5.43;;;4.30;;
2858;SDS011;1437;53.250;10.406;2022-08-03T06:47:38;5.50;;;4.27;;
2858;SDS011;1437;53.250;10.406;2022-08-03T06:50:06;5.37;;;4.10;;
2858;SDS011;1437;53.250;10.406;2022-08-03T06:52:34;4.47;;;3.50;;
2858;SDS011;1437;53.250;10.406;2022-08-03T06:55:02;5.73;;;4.30;;
2858;SDS011;1437;53.250;10.406;2022-08-03T06:57:32;5.30;;;3.70;;
2858;SDS011;1437;53.250;10.406;2022-08-03T06:59:59;4.77;;;3.20;;
2858;SDS011;1437;53.250;10.406;2022-08-03T07:02:27;4.80;;;3.20;;
2858;SDS011;1437;53.250;10.406;2022-08-03T07:04:55;4.90;;;3.20;;
2858;SDS011;1437;53.250;10.406;2022-08-03T07:07:23;6.97;;;4.00;;
2858;SDS011;1437;53.250;10.406;2022-08-03T07:09:52;4.60;;;2.77;;
2858;SDS011;1437;53.250;10.406;2022-08-03T07:12:19;3.83;;;3.30;;
2858;SDS011;1437;53.250;10.406;2022-08-03T07:14:46;7.40;;;2.87;;
2858;SDS011;1437;53.250;10.406;2022-08-03T07:17:13;3.60;;;2.87;;
2858;SDS011;1437;53.250;10.406;2022-08-03T07:19:40;3.53;;;3.10;;
2858;SDS011;1437;53.250;10.406;2022-08-03T07:22:07;3.50;;;2.80;;
2858;SDS011;1437;53.250;10.406;2022-08-03T07:24:35;4.87;;;2.57;;
2858;SDS011;1437;53.250;10.406;2022-08-03T07:27:03;4.83;;;3.40;;
2858;SDS011;1437;53.250;10.406;2022-08-03T07:29:30;5.03;;;2.63;;
2858;SDS011;1437;53.250;10.406;2022-08-03T07:31:58;6.53;;;4.83;;
2858;SDS011;1437;53.250;10.406;2022-08-03T07:34:26;5.87;;;2.83;;
2858;SDS011;1437;53.250;10.406;2022-08-03T07:36:53;7.70;;;3.07;;
2858;SDS011;1437;53.250;10.406;2022-08-03T07:39:21;4.40;;;2.40;;
2858;SDS011;1437;53.250;10.406;2022-08-03T07:41:48;4.93;;;2.37;;
2858;SDS011;1437;53.250;10.406;2022-08-03T07:44:16;3.33;;;2.17;;
2858;SDS011;1437;53.250;10.406;2022-08-03T07:46:44;4.43;;;1.77;;
2858;SDS011;1437;53.250;10.406;2022-08-03T07:49:20;3.13;;;1.80;;
2858;SDS011;1437;53.250;10.406;2022-08-03T07:51:49;7.03;;;2.00;;
2858;SDS011;1437;53.250;10.406;2022-08-03T07:54:34;3.27;;;2.40;;
2858;SDS011;1437;53.250;10.406;2022-08-03T07:57:03;3.00;;;2.20;;
2858;SDS011;1437;53.250;10.406;2022-08-03T07:59:45;2.97;;;2.07;;
2858;SDS011;1437;53.250;10.406;2022-08-03T08:02:16;4.17;;;1.90;;
2858;SDS011;1437;53.250;10.406;2022-08-03T08:04:47;7.20;;;2.00;;
2858;SDS011;1437;53.250;10.406;2022-08-03T08:07:19;3.73;;;2.20;;
2858;SDS011;1437;53.250;10.406;2022-08-03T08:09:46;3.27;;;2.20;;
2858;SDS011;1437;53.250;10.406;2022-08-03T08:12:19;3.07;;;1.80;;
2858;SDS011;1437;53.250;10.406;2022-08-03T08:14:47;2.80;;;1.80;;
2858;SDS011;1437;53.250;10.406;2022-08-03T08:17:14;5.30;;;2.10;;
2858;SDS011;1437;53.250;10.406;2022-08-03T08:19:41;3.20;;;2.47;;
2858;SDS011;1437;53.250;10.406;2022-08-03T08:22:08;4.70;;;2.40;;
2858;SDS011;1437;53.250;10.406;2022-08-03T08:24:35;4.43;;;2.10;;
2858;SDS011;1437;53.250;10.406;2022-08-03T08:27:04;2.60;;;2.00;;
2858;SDS011;1437;53.250;10.406;2022-08-03T08:29:37;4.73;;;2.40;;
2858;SDS011;1437;53.250;10.406;2022-08-03T08:32:07;2.80;;;1.70;;
2858;SDS011;1437;53.250;10.406;2022-08-03T08:34:38;3.50;;;1.90;;
2858;SDS011;1437;53.250;10.406;2022-08-03T08:37:06;106.30;;;9.63;;
2858;SDS011;1437;53.250;10.406;2022-08-03T08:39:34;6.00;;;2.93;;
2858;SDS011;1437;53.250;10.406;2022-08-03T08:42:03;4.00;;;2.60;;
2858;SDS011;1437;53.250;10.406;2022-08-03T08:44:34;4.83;;;1.80;;
2858;SDS011;1437;53.250;10.406;2022-08-03T08:47:07;6.90;;;3.40;;
2858;SDS011;1437;53.250;10.406;2022-08-03T08:49:38;2.50;;;1.70;;
2858;SDS011;1437;53.250;10.406;2022-08-03T08:52:12;3.67;;;1.60;;
2858;SDS011;1437;53.250;10.406;2022-08-03T08:54:42;5.13;;;1.70;;
2858;SDS011;1437;53.250;10.406;2022-08-03T08:57:12;6.33;;;2.30;;
2858;SDS011;1437;53.250;10.406;2022-08-03T08:59:41;7.63;;;3.10;;
2858;SDS011;1437;53.250;10.406;2022-08-03T09:02:12;4.20;;;1.83;;
2858;SDS011;1437;53.250;10.406;2022-08-03T09:04:43;6.97;;;2.80;;
2858;SDS011;1437;53.250;10.406;2022-08-03T09:07:13;5.83;;;1.77;;
2858;SDS011;1437;53.250;10.406;2022-08-03T09:09:45;4.00;;;3.10;;
2858;SDS011;1437;53.250;10.406;2022-08-03T09:12:13;3.10;;;1.90;;
2858;SDS011;1437;53.250;10.406;2022-08-03T09:14:41;2.97;;;1.60;;
2858;SDS011;1437;53.250;10.406;2022-08-03T09:17:08;7.57;;;2.53;;
2858;SDS011;1437;53.250;10.406;2022-08-03T09:19:36;5.37;;;3.03;;
2858;SDS011;1437;53.250;10.406;2022-08-03T09:22:11;4.80;;;2.17;;
2858;SDS011;1437;53.250;10.406;2022-08-03T09:24:53;9.50;;;2.40;;
2858;SDS011;1437;53.250;10.406;2022-08-03T09:27:20;3.53;;;2.07;;
2858;SDS011;1437;53.250;10.406;2022-08-03T09:29:50;4.23;;;1.73;;
2858;SDS011;1437;53.250;10.406;2022-08-03T09:32:19;4.63;;;1.60;;
2858;SDS011;1437;53.250;10.406;2022-08-03T09:34:50;4.27;;;1.77;;
2858;SDS011;1437;53.250;10.406;2022-08-03T09:37:23;3.43;;;2.10;;
2858;SDS011;1437;53.250;10.406;2022-08-03T09:39:55;4.40;;;1.40;;
2858;SDS011;1437;53.250;10.406;2022-08-03T09:42:32;3.00;;;1.20;;
2858;SDS011;1437;53.250;10.406;2022-08-03T09:45:11;6.63;;;1.93;;
2858;SDS011;1437;53.250;10.406;2022-08-03T09:47:55;2.80;;;1.50;;
2858;SDS011;1437;53.250;10.406;2022-08-03T09:50:27;2.30;;;1.30;;
2858;SDS011;1437;53.250;10.406;2022-08-03T09:52:55;5.50;;;2.10;;
2858;SDS011;1437;53.250;10.406;2022-08-03T09:55:36;4.53;;;1.50;;
2858;SDS011;1437;53.250;10.406;2022-08-03T09:58:04;3.40;;;1.50;;
2858;SDS011;1437;53.250;10.406;2022-08-03T10:00:44;3.13;;;1.80;;
2858;SDS011;1437;53.250;10.406;2022-08-03T10:03:19;6.63;;;2.00;;
2858;SDS011;1437;53.250;10.406;2022-08-03T10:05:48;3.20;;;1.73;;
2858;SDS011;1437;53.250;10.406;2022-08-03T10:08:15;7.57;;;1.77;;
2858;SDS011;1437;53.250;10.406;2022-08-03T10:10:43;3.90;;;1.60;;
2858;SDS011;1437;53.250;10.406;2022-08-03T10:13:10;3.57;;;1.43;;
2858;SDS011;1437;53.250;10.406;2022-08-03T10:15:39;4.17;;;1.40;;
2858;SDS011;1437;53.250;10.406;2022-08-03T10:18:08;6.17;;;1.60;;
2858;SDS011;1437;53.250;10.406;2022-08-03T10:20:36;7.63;;;2.10;;
2858;SDS011;1437;53.250;10.406;2022-08-03T10:23:04;4.67;;;1.57;;
2858;SDS011;1437;53.250;10.406;2022-08-03T10:25:33;3.13;;;1.50;;
2858;SDS011;1437;53.250;10.406;2022-08-03T10:28:02;3.10;;;1.70;;
2858;SDS011;1437;53.250;10.406;2022-08-03T10:30:31;3.50;;;1.80;;
2858;SDS011;1437;53.250;10.406;2022-08-03T10:33:04;5.20;;;1.70;;
2858;SDS011;1437;53.250;10.406;2022-08-03T10:35:32;3.30;;;1.47;;
2858;SDS011;1437;53.250;10.406;2022-08-03T10:38:00;4.10;;;2.03;;
2858;SDS011;1437;53.250;10.406;2022-08-03T10:40:29;5.03;;;2.27;;
2858;SDS011;1437;53.250;10.406;2022-08-03T10:43:06;3.53;;;1.80;;
2858;SDS011;1437;53.250;10.406;2022-08-03T10:45:37;3.50;;;1.60;;
2858;SDS011;1437;53.250;10.406;2022-08-03T10:48:06;4.63;;;1.63;;
2858;SDS011;1437;53.250;10.406;2022-08-03T10:50:34;3.40;;;1.43;;
2858;SDS011;1437;53.250;10.406;2022-08-03T10:53:02;2.83;;;1.47;;
2858;SDS011;1437;53.250;10.406;2022-08-03T10:55:32;3.40;;;1.57;;
2858;SDS011;1437;53.250;10.406;2022-08-03T11:01:06;3.90;;;2.23;;
2858;SDS011;1437;53.250;10.406;2022-08-03T11:03:47;6.47;;;2.90;;
2858;SDS011;1437;53.250;10.406;2022-08-03T11:06:22;4.93;;;1.93;;
2858;SDS011;1437;53.250;10.406;2022-08-03T11:09:12;3.90;;;2.10;;
2858;SDS011;1437;53.250;10.406;2022-08-03T11:11:40;6.07;;;2.83;;
2858;SDS011;1437;53.250;10.406;2022-08-03T11:14:08;4.93;;;2.00;;
2858;SDS011;1437;53.250;10.406;2022-08-03T11:16:36;2.50;;;1.40;;
2858;SDS011;1437;53.250;10.406;2022-08-03T11:19:06;3.30;;;1.57;;
2858;SDS011;1437;53.250;10.406;2022-08-03T11:27:17;3.70;;;1.73;;
2858;SDS011;1437;53.250;10.406;2022-08-03T11:29:52;3.57;;;1.60;;
2858;SDS011;1437;53.250;10.406;2022-08-03T11:35:13;5.67;;;1.80;;
2858;SDS011;1437;53.250;10.406;2022-08-03T11:40:33;4.30;;;1.57;;
2858;SDS011;1437;53.250;10.406;2022-08-03T11:43:05;6.93;;;1.70;;
2858;SDS011;1437;53.250;10.406;2022-08-03T11:45:33;3.73;;;1.70;;
2858;SDS011;1437;53.250;10.406;2022-08-03T11:48:02;4.77;;;1.73;;
2858;SDS011;1437;53.250;10.406;2022-08-03T11:50:39;2.87;;;1.60;;
2858;SDS011;1437;53.250;10.406;2022-08-03T11:53:11;4.20;;;1.20;;
2858;SDS011;1437;53.250;10.406;2022-08-03T11:55:39;2.80;;;1.50;;
2858;SDS011;1437;53.250;10.406;2022-08-03T11:58:14;3.53;;;1.30;;
2858;SDS011;1437;53.250;10.406;2022-08-03T12:00:42;3.83;;;1.40;;
2858;SDS011;1437;53.250;10.406;2022-08-03T12:03:12;2.97;;;2.00;;
2858;SDS011;1437;53.250;10.406;2022-08-03T12:05:44;5.00;;;1.37;;
2858;SDS011;1437;53.250;10.406;2022-08-03T12:08:13;4.20;;;1.37;;
2858;SDS011;1437;53.250;10.406;2022-08-03T12:10:48;5.67;;;1.77;;
2858;SDS011;1437;53.250;10.406;2022-08-03T12:13:40;8.70;;;1.67;;
2858;SDS011;1437;53.250;10.406;2022-08-03T12:16:21;3.93;;;1.30;;
2858;SDS011;1437;53.250;10.406;2022-08-03T12:18:57;3.77;;;1.50;;
2858;SDS011;1437;53.250;10.406;2022-08-03T12:21:27;3.10;;;1.23;;
2858;SDS011;1437;53.250;10.406;2022-08-03T12:24:02;5.67;;;2.97;;
2858;SDS011;1437;53.250;10.406;2022-08-03T12:26:41;3.73;;;1.20;;
2858;SDS011;1437;53.250;10.406;2022-08-03T12:29:17;4.40;;;1.30;;
2858;SDS011;1437;53.250;10.406;2022-08-03T12:31:48;5.70;;;1.70;;
2858;SDS011;1437;53.250;10.406;2022-08-03T12:34:17;6.00;;;2.80;;
2858;SDS011;1437;53.250;10.406;2022-08-03T12:36:49;4.20;;;1.60;;
2858;SDS011;1437;53.250;10.406;2022-08-03T12:39:21;4.50;;;1.90;;
2858;SDS011;1437;53.250;10.406;2022-08-03T12:41:51;4.10;;;2.00;;
2858;SDS011;1437;53.250;10.406;2022-08-03T12:44:27;4.03;;;1.57;;
2858;SDS011;1437;53.250;10.406;2022-08-03T12:46:56;4.13;;;1.97;;
2858;SDS011;1437;53.250;10.406;2022-08-03T12:49:25;3.60;;;1.60;;
2858;SDS011;1437;53.250;10.406;2022-08-03T12:51:56;6.13;;;1.70;;
2858;SDS011;1437;53.250;10.406;2022-08-03T12:54:25;5.63;;;1.93;;
2858;SDS011;1437;53.250;10.406;2022-08-03T12:56:57;3.70;;;1.67;;
2858;SDS011;1437;53.250;10.406;2022-08-03T12:59:27;3.70;;;2.00;;
2858;SDS011;1437;53.250;10.406;2022-08-03T13:01:55;3.13;;;1.60;;
2858;SDS011;1437;53.250;10.406;2022-08-03T13:04:30;3.67;;;1.70;;
2858;SDS011;1437;53.250;10.406;2022-08-03T13:06:59;2.60;;;1.57;;
2858;SDS011;1437;53.250;10.406;2022-08-03T13:09:27;4.90;;;1.50;;
2858;SDS011;1437;53.250;10.406;2022-08-03T13:12:10;4.23;;;1.40;;
2858;SDS011;1437;53.250;10.406;2022-08-03T13:14:38;3.70;;;1.57;;
2858;SDS011;1437;53.250;10.406;2022-08-03T13:17:10;3.27;;;1.63;;
2858;SDS011;1437;53.250;10.406;2022-08-03T13:19:38;4.70;;;1.90;;
2858;SDS011;1437;53.250;10.406;2022-08-03T13:22:11;5.97;;;1.53;;
2858;SDS011;1437;53.250;10.406;2022-08-03T13:24:39;4.97;;;1.60;;
2858;SDS011;1437;53.250;10.406;2022-08-03T13:27:07;3.93;;;1.43;;
2858;SDS011;1437;53.250;10.406;2022-08-03T13:29:34;2.93;;;1.47;;
2858;SDS011;1437;53.250;10.406;2022-08-03T13:32:02;5.20;;;1.20;;
2858;SDS011;1437;53.250;10.406;2022-08-03T13:34:30;3.43;;;1.23;;
2858;SDS011;1437;53.250;10.406;2022-08-03T13:36:57;2.73;;;1.63;;
2858;SDS011;1437;53.250;10.406;2022-08-03T13:39:24;4.63;;;1.33;;
2858;SDS011;1437;53.250;10.406;2022-08-03T13:41:51;3.10;;;1.23;;
2858;SDS011;1437;53.250;10.406;2022-08-03T13:44:20;3.93;;;1.43;;
2858;SDS011;1437;53.250;10.406;2022-08-03T13:46:47;5.60;;;1.80;;
2858;SDS011;1437;53.250;10.406;2022-08-03T13:49:16;4.70;;;3.00;;
2858;SDS011;1437;53.250;10.406;2022-08-03T13:51:45;2.97;;;1.20;;
2858;SDS011;1437;53.250;10.406;2022-08-03T13:54:12;4.43;;;1.27;;
2858;SDS011;1437;53.250;10.406;2022-08-03T13:56:39;2.50;;;1.07;;
2858;SDS011;1437;53.250;10.406;2022-08-03T13:59:08;3.67;;;1.70;;
2858;SDS011;1437;53.250;10.406;2022-08-03T14:01:35;3.23;;;1.33;;
2858;SDS011;1437;53.250;10.406;2022-08-03T14:04:02;6.00;;;1.53;;
2858;SDS011;1437;53.250;10.406;2022-08-03T14:06:31;2.93;;;1.40;;
2858;SDS011;1437;53.250;10.406;2022-08-03T14:08:58;6.67;;;1.43;;
2858;SDS011;1437;53.250;10.406;2022-08-03T14:11:25;3.53;;;1.30;;
2858;SDS011;1437;53.250;10.406;2022-08-03T14:13:52;3.30;;;1.53;;
2858;SDS011;1437;53.250;10.406;2022-08-03T14:16:19;5.13;;;1.90;;
2858;SDS011;1437;53.250;10.406;2022-08-03T14:18:50;4.10;;;1.67;;
2858;SDS011;1437;53.250;10.406;2022-08-03T14:21:20;3.07;;;1.10;;
2858;SDS011;1437;53.250;10.406;2022-08-03T14:23:49;4.33;;;1.27;;
2858;SDS011;1437;53.250;10.406;2022-08-03T14:26:16;2.53;;;1.37;;
2858;SDS011;1437;53.250;10.406;2022-08-03T14:28:46;2.73;;;1.60;;
2858;SDS011;1437;53.250;10.406;2022-08-03T14:31:13;4.03;;;1.60;;
2858;SDS011;1437;53.250;10.406;2022-08-03T14:33:41;8.00;;;1.80;;
2858;SDS011;1437;53.250;10.406;2022-08-03T14:36:09;4.13;;;2.33;;
2858;SDS011;1437;53.250;10.406;2022-08-03T14:38:37;3.23;;;1.73;;
2858;SDS011;1437;53.250;10.406;2022-08-03T14:41:05;5.80;;;2.67;;
2858;SDS011;1437;53.250;10.406;2022-08-03T14:43:32;7.20;;;1.83;;
2858;SDS011;1437;53.250;10.406;2022-08-03T14:45:59;3.97;;;2.60;;
2858;SDS011;1437;53.250;10.406;2022-08-03T14:48:27;3.73;;;1.87;;
2858;SDS011;1437;53.250;10.406;2022-08-03T14:50:54;2.03;;;1.07;;
2858;SDS011;1437;53.250;10.406;2022-08-03T14:53:21;2.73;;;1.30;;
2858;SDS011;1437;53.250;10.406;2022-08-03T14:55:48;6.70;;;3.50;;
2858;SDS011;1437;53.250;10.406;2022-08-03T14:58:18;4.77;;;1.90;;
2858;SDS011;1437;53.250;10.406;2022-08-03T15:00:45;4.40;;;1.80;;
2858;SDS011;1437;53.250;10.406;2022-08-03T15:03:12;3.17;;;1.20;;
2858;SDS011;1437;53.250;10.406;2022-08-03T15:05:41;3.20;;;1.47;;
2858;SDS011;1437;53.250;10.406;2022-08-03T15:08:11;3.27;;;1.40;;
2858;SDS011;1437;53.250;10.406;2022-08-03T15:10:38;9.63;;;1.77;;
2858;SDS011;1437;53.250;10.406;2022-08-03T15:13:06;3.90;;;1.90;;
2858;SDS011;1437;53.250;10.406;2022-08-03T15:15:35;2.90;;;1.30;;
2858;SDS011;1437;53.250;10.406;2022-08-03T15:18:02;3.40;;;1.67;;
2858;SDS011;1437;53.250;10.406;2022-08-03T15:20:29;4.03;;;2.03;;
2858;SDS011;1437;53.250;10.406;2022-08-03T15:22:56;2.90;;;2.03;;
2858;SDS011;1437;53.250;10.406;2022-08-03T15:25:29;3.00;;;1.10;;
2858;SDS011;1437;53.250;10.406;2022-08-03T15:27:56;4.80;;;1.37;;
2858;SDS011;1437;53.250;10.406;2022-08-03T15:30:23;4.30;;;1.53;;